createdAt,value
2023-12-17T00:00:32.322Z,415.00
2023-12-17T00:01:04.846Z,266.00
2023-12-17T00:01:37.371Z,268.50
2023-12-17T00:02:09.934Z,282.40
2023-12-17T00:02:42.704Z,330.30
2023-12-17T00:03:19.289Z,389.30
2023-12-17T00:03:47.791Z,454.20
2023-12-17T00:04:20.392Z,490.50
2023-12-17T00:04:52.859Z,228.80
2023-12-17T00:05:25.399Z,218.20
2023-12-17T00:05:57.841Z,210.60
2023-12-17T00:06:30.341Z,202.00
2023-12-17T00:07:02.735Z,220.50
2023-12-17T00:07:35.331Z,224.00
2023-12-17T00:08:07.859Z,230.00
2023-12-17T00:08:40.470Z,256.80
2023-12-17T00:09:13.098Z,295.90
2023-12-17T00:09:45.473Z,316.50
2023-12-17T00:10:18.018Z,296.80
2023-12-17T00:10:50.566Z,344.70
2023-12-17T00:11:23.131Z,354.40
2023-12-17T00:11:55.745Z,328.50
2023-12-17T00:12:28.222Z,382.80
2023-12-17T00:13:00.691Z,417.50
2023-12-17T00:13:33.171Z,465.90
2023-12-17T00:14:05.733Z,485.60
2023-12-17T00:14:38.415Z,496.90
2023-12-17T00:15:10.824Z,343.30
2023-12-17T00:15:43.285Z,334.60
2023-12-17T00:16:15.858Z,451.90
2023-12-17T00:16:48.390Z,261.50
2023-12-17T00:17:20.953Z,255.30
2023-12-17T00:17:53.465Z,264.90
2023-12-17T00:18:26.094Z,307.30
2023-12-17T00:18:58.574Z,418.60
2023-12-17T00:19:31.117Z,424.80
2023-12-17T00:20:04.440Z,525.30
2023-12-17T00:20:36.848Z,478.50
2023-12-17T00:21:09.372Z,477.50
2023-12-17T00:21:41.818Z,515.80
2023-12-17T00:22:14.386Z,478.00
2023-12-17T00:22:46.896Z,396.50
2023-12-17T00:23:19.356Z,399.20
2023-12-17T00:23:51.953Z,438.20
2023-12-17T00:24:24.464Z,448.10
2023-12-17T00:24:56.927Z,438.40
2023-12-17T00:25:29.644Z,459.30
2023-12-17T00:26:02.194Z,401.30
2023-12-17T00:26:34.769Z,376.50
2023-12-17T00:27:07.448Z,383.10
2023-12-17T00:27:40.246Z,334.80
2023-12-17T00:28:12.639Z,309.20
2023-12-17T00:28:45.544Z,327.40
2023-12-17T00:29:18.023Z,346.00
2023-12-17T00:29:50.588Z,344.10
2023-12-17T00:30:23.158Z,245.50
2023-12-17T00:30:55.624Z,258.30
2023-12-17T00:31:28.148Z,266.10
2023-12-17T00:32:01.554Z,257.10
2023-12-17T00:32:33.355Z,244.40
2023-12-17T00:33:06.048Z,253.50
2023-12-17T00:33:38.437Z,275.60
2023-12-17T00:34:10.985Z,283.20
2023-12-17T00:34:43.299Z,282.00
2023-12-17T00:35:15.733Z,265.70
2023-12-17T00:35:48.238Z,207.70
2023-12-17T00:36:20.712Z,208.50
2023-12-17T00:36:53.143Z,217.00
2023-12-17T00:37:25.720Z,209.10
2023-12-17T00:37:58.215Z,202.60
2023-12-17T00:38:30.623Z,221.00
2023-12-17T00:39:03.184Z,214.60
2023-12-17T00:39:35.796Z,222.80
2023-12-17T00:40:08.347Z,195.80
2023-12-17T00:40:40.850Z,218.20
2023-12-17T00:41:13.384Z,245.80
2023-12-17T00:41:46.019Z,212.70
2023-12-17T00:42:18.626Z,204.00
2023-12-17T00:42:51.003Z,232.50
2023-12-17T00:43:23.450Z,217.50
2023-12-17T00:43:56.003Z,227.20
2023-12-17T00:44:28.517Z,239.60
2023-12-17T00:45:01.108Z,257.30
2023-12-17T00:45:33.676Z,245.00
2023-12-17T00:46:06.156Z,242.10
2023-12-17T00:46:38.687Z,311.00
2023-12-17T00:47:11.136Z,311.70
2023-12-17T00:47:43.966Z,306.40
2023-12-17T00:48:16.335Z,335.40
2023-12-17T00:48:48.663Z,257.70
2023-12-17T00:49:21.283Z,239.60
2023-12-17T00:49:53.722Z,244.80
2023-12-17T00:50:26.183Z,243.50
2023-12-17T00:50:58.681Z,231.60
2023-12-17T00:51:31.165Z,220.40
2023-12-17T00:52:03.637Z,190.60
2023-12-17T00:52:36.096Z,186.10
2023-12-17T00:53:08.593Z,182.90
2023-12-17T00:53:41.151Z,184.30
2023-12-17T00:54:13.679Z,183.60
2023-12-17T00:54:46.130Z,204.60
2023-12-17T00:55:18.629Z,197.00
2023-12-17T00:55:51.215Z,184.70
2023-12-17T00:56:23.752Z,216.70
2023-12-17T00:56:56.319Z,204.40
2023-12-17T00:57:28.782Z,210.10
2023-12-17T00:58:01.316Z,194.20
2023-12-17T00:58:33.817Z,188.00
2023-12-17T00:59:06.277Z,195.10
2023-12-17T00:59:38.878Z,195.00
2023-12-17T01:00:11.327Z,185.90
2023-12-17T01:00:52.515Z,202.30
2023-12-17T01:01:16.258Z,203.00
2023-12-17T01:01:48.750Z,206.10
2023-12-17T01:02:21.373Z,225.60
2023-12-17T01:02:53.935Z,189.70
2023-12-17T01:03:26.536Z,220.90
2023-12-17T01:03:58.930Z,211.10
2023-12-17T01:04:31.244Z,221.70
2023-12-17T01:05:03.794Z,232.10
2023-12-17T01:05:36.319Z,226.90
2023-12-17T01:06:08.904Z,227.90
2023-12-17T01:06:41.540Z,223.50
2023-12-17T01:07:13.967Z,223.20
2023-12-17T01:07:46.485Z,212.10
2023-12-17T01:08:18.999Z,219.80
2023-12-17T01:08:51.525Z,227.10
2023-12-17T01:09:24.001Z,226.30
2023-12-17T01:09:56.440Z,226.10
2023-12-17T01:10:28.880Z,247.90
2023-12-17T01:11:01.371Z,200.50
2023-12-17T01:11:33.871Z,208.60
2023-12-17T01:12:06.389Z,257.00
2023-12-17T01:12:38.797Z,290.80
2023-12-17T01:13:11.357Z,306.80
2023-12-17T01:13:43.955Z,294.20
2023-12-17T01:14:16.448Z,319.90
2023-12-17T01:14:49.020Z,327.30
2023-12-17T01:15:21.554Z,326.00
2023-12-17T01:15:53.946Z,346.10
2023-12-17T01:16:26.329Z,374.10
2023-12-17T01:16:58.792Z,372.70
2023-12-17T01:17:31.305Z,341.80
2023-12-17T01:18:04.069Z,318.20
2023-12-17T01:18:37.043Z,325.70
2023-12-17T01:19:09.060Z,354.70
2023-12-17T01:19:41.588Z,333.30
2023-12-17T01:20:14.052Z,314.60
2023-12-17T01:20:46.640Z,300.90
2023-12-17T01:21:19.267Z,308.20
2023-12-17T01:21:51.721Z,355.00
2023-12-17T01:22:24.334Z,321.40
2023-12-17T01:22:56.763Z,296.20
2023-12-17T01:23:29.226Z,246.70
2023-12-17T01:24:01.768Z,257.60
2023-12-17T01:24:34.559Z,250.00
2023-12-17T01:25:07.192Z,253.00
2023-12-17T01:25:39.637Z,268.40
2023-12-17T01:26:12.088Z,277.40
2023-12-17T01:26:44.538Z,262.70
2023-12-17T01:27:17.060Z,273.20
2023-12-17T01:27:49.452Z,294.10
2023-12-17T01:28:21.975Z,336.70
2023-12-17T01:28:54.531Z,314.60
2023-12-17T01:29:27.066Z,332.20
2023-12-17T01:29:59.604Z,347.90
2023-12-17T01:30:32.119Z,362.70
2023-12-17T01:31:04.776Z,378.70
2023-12-17T01:31:37.258Z,345.90
2023-12-17T01:32:09.830Z,356.00
2023-12-17T01:32:42.455Z,367.80
2023-12-17T01:33:14.955Z,324.50
2023-12-17T01:33:47.555Z,303.30
2023-12-17T01:34:19.939Z,334.40
2023-12-17T01:34:52.364Z,361.10
2023-12-17T01:35:24.862Z,259.90
2023-12-17T01:35:57.369Z,254.00
2023-12-17T01:36:29.821Z,275.90
2023-12-17T01:37:02.238Z,278.60
2023-12-17T01:37:34.785Z,308.70
2023-12-17T01:38:07.311Z,305.30
2023-12-17T01:38:39.825Z,295.10
2023-12-17T01:39:12.311Z,309.10
2023-12-17T01:39:44.723Z,332.50
2023-12-17T01:40:17.264Z,344.30
2023-12-17T01:40:49.788Z,331.30
2023-12-17T01:41:22.284Z,332.50
2023-12-17T01:41:54.761Z,346.00
2023-12-17T01:42:27.215Z,357.20
2023-12-17T01:42:59.676Z,381.10
2023-12-17T01:43:32.142Z,346.50
2023-12-17T01:44:04.602Z,348.40
2023-12-17T01:44:37.094Z,369.30
2023-12-17T01:45:09.694Z,388.80
2023-12-17T01:45:42.189Z,374.40
2023-12-17T01:46:14.694Z,415.50
2023-12-17T01:46:47.174Z,440.30
2023-12-17T01:47:19.680Z,447.50
2023-12-17T01:47:52.278Z,469.50
2023-12-17T01:48:24.810Z,428.60
2023-12-17T01:48:57.252Z,277.10
2023-12-17T01:49:29.875Z,277.60
2023-12-17T01:50:03.088Z,273.00
2023-12-17T01:50:35.604Z,279.70
2023-12-17T01:51:08.276Z,253.70
2023-12-17T01:51:40.774Z,251.30
2023-12-17T01:52:13.276Z,260.10
2023-12-17T01:52:45.817Z,286.70
2023-12-17T01:53:18.398Z,270.80
2023-12-17T01:53:50.883Z,296.80
2023-12-17T01:54:23.409Z,291.30
2023-12-17T01:54:55.845Z,305.40
2023-12-17T01:55:28.370Z,279.60
2023-12-17T01:56:00.948Z,293.60
2023-12-17T01:56:33.529Z,233.90
2023-12-17T01:57:05.977Z,244.60
2023-12-17T01:57:38.736Z,247.30
2023-12-17T01:58:10.877Z,250.70
2023-12-17T01:58:43.439Z,255.60
2023-12-17T01:59:16.008Z,265.90
2023-12-17T01:59:48.520Z,260.30
2023-12-17T02:00:21.211Z,243.90
2023-12-17T02:00:53.701Z,264.20
2023-12-17T02:01:26.263Z,255.10
2023-12-17T02:01:58.679Z,244.90
2023-12-17T02:02:31.158Z,261.40
2023-12-17T02:03:03.701Z,243.30
2023-12-17T02:03:36.243Z,264.20
2023-12-17T02:04:08.653Z,248.00
2023-12-17T02:04:41.155Z,220.40
2023-12-17T02:05:13.674Z,190.40
2023-12-17T02:05:46.299Z,183.70
2023-12-17T02:06:18.786Z,177.90
2023-12-17T02:06:51.319Z,196.50
2023-12-17T02:07:23.807Z,218.40
2023-12-17T02:07:56.331Z,200.50
2023-12-17T02:08:28.844Z,224.70
2023-12-17T02:09:01.609Z,205.20
2023-12-17T02:09:34.152Z,206.90
2023-12-17T02:10:06.758Z,192.20
2023-12-17T02:10:39.316Z,193.10
2023-12-17T02:11:11.980Z,232.30
2023-12-17T02:11:44.557Z,193.10
2023-12-17T02:12:17.095Z,217.70
2023-12-17T02:12:49.544Z,214.10
2023-12-17T02:13:22.075Z,211.40
2023-12-17T02:13:54.760Z,214.80
2023-12-17T02:14:27.334Z,192.30
2023-12-17T02:14:59.880Z,177.40
2023-12-17T02:15:32.370Z,236.40
2023-12-17T02:16:04.850Z,213.30
2023-12-17T02:16:37.563Z,212.60
2023-12-17T02:17:10.113Z,213.90
2023-12-17T02:17:42.938Z,202.10
2023-12-17T02:18:15.171Z,191.50
2023-12-17T02:18:47.598Z,184.40
2023-12-17T02:19:20.104Z,182.10
2023-12-17T02:19:52.571Z,188.00
2023-12-17T02:20:25.037Z,190.30
2023-12-17T02:20:57.537Z,199.80
2023-12-17T02:21:29.972Z,191.20
2023-12-17T02:22:02.435Z,205.20
2023-12-17T02:22:34.876Z,202.30
2023-12-17T02:23:07.396Z,202.40
2023-12-17T02:23:39.899Z,208.00
2023-12-17T02:24:12.432Z,210.80
2023-12-17T02:24:44.920Z,192.70
2023-12-17T02:25:17.396Z,194.20
2023-12-17T02:25:50.058Z,213.10
2023-12-17T02:26:22.577Z,212.20
2023-12-17T02:26:55.114Z,215.20
2023-12-17T02:27:27.721Z,212.30
2023-12-17T02:28:00.239Z,247.60
2023-12-17T02:28:32.729Z,273.20
2023-12-17T02:29:06.005Z,242.60
2023-12-17T02:29:38.470Z,222.70
2023-12-17T02:30:11.112Z,242.00
2023-12-17T02:30:43.580Z,193.10
2023-12-17T02:31:16.057Z,182.80
2023-12-17T02:31:48.501Z,191.60
2023-12-17T02:32:21.222Z,185.40
2023-12-17T02:32:53.878Z,185.00
2023-12-17T02:33:26.551Z,201.10
2023-12-17T02:33:58.932Z,223.70
2023-12-17T02:34:31.305Z,215.50
2023-12-17T02:35:03.716Z,213.10
2023-12-17T02:35:36.197Z,184.90
2023-12-17T02:36:08.771Z,193.00
2023-12-17T02:36:43.761Z,218.50
2023-12-17T02:37:13.727Z,189.30
2023-12-17T02:37:46.281Z,214.70
2023-12-17T02:38:18.791Z,227.70
2023-12-17T02:38:51.369Z,212.80
2023-12-17T02:39:23.872Z,234.40
2023-12-17T02:39:56.300Z,224.90
2023-12-17T02:40:28.813Z,221.40
2023-12-17T02:41:01.337Z,220.30
2023-12-17T02:41:33.832Z,235.90
2023-12-17T02:42:06.379Z,227.70
2023-12-17T02:42:38.868Z,237.40
2023-12-17T02:43:11.340Z,258.00
2023-12-17T02:43:43.790Z,253.90
2023-12-17T02:44:16.295Z,253.20
2023-12-17T02:44:48.892Z,253.80
2023-12-17T02:45:21.456Z,239.40
2023-12-17T02:45:53.853Z,240.30
2023-12-17T02:46:26.302Z,240.70
2023-12-17T02:46:58.855Z,222.30
2023-12-17T02:47:31.380Z,254.00
2023-12-17T02:48:03.992Z,272.50
2023-12-17T02:48:36.573Z,263.60
2023-12-17T02:49:09.124Z,277.30
2023-12-17T02:49:41.583Z,273.00
2023-12-17T02:50:13.997Z,278.00
2023-12-17T02:50:46.491Z,286.10
2023-12-17T02:51:19.103Z,289.80
2023-12-17T02:51:51.390Z,298.70
2023-12-17T02:52:23.910Z,300.50
2023-12-17T02:52:56.437Z,292.40
2023-12-17T02:53:28.950Z,274.00
2023-12-17T02:54:01.522Z,273.90
2023-12-17T02:54:34.009Z,297.50
2023-12-17T02:55:06.568Z,281.90
2023-12-17T02:55:39.022Z,286.70
2023-12-17T02:56:11.531Z,313.90
2023-12-17T02:56:44.099Z,319.10
2023-12-17T02:57:16.634Z,313.20
2023-12-17T02:57:49.062Z,314.70
2023-12-17T02:58:21.558Z,297.90
2023-12-17T02:58:54.077Z,300.70
2023-12-17T02:59:26.616Z,313.20
2023-12-17T02:59:59.219Z,298.20
2023-12-17T03:00:31.734Z,291.90
2023-12-17T03:01:04.152Z,305.70
2023-12-17T03:01:36.584Z,295.40
2023-12-17T03:02:09.112Z,278.30
2023-12-17T03:02:41.648Z,284.40
2023-12-17T03:03:14.212Z,312.80
2023-12-17T03:03:46.735Z,333.80
2023-12-17T03:04:19.277Z,329.40
2023-12-17T03:04:51.726Z,347.10
2023-12-17T03:05:24.222Z,324.80
2023-12-17T03:05:56.737Z,305.10
2023-12-17T03:06:29.242Z,311.40
2023-12-17T03:07:01.726Z,331.50
2023-12-17T03:07:34.251Z,332.00
2023-12-17T03:08:06.782Z,324.50
2023-12-17T03:08:39.306Z,355.00
2023-12-17T03:09:11.799Z,362.10
2023-12-17T03:09:44.258Z,355.20
2023-12-17T03:10:16.829Z,329.90
2023-12-17T03:10:49.266Z,316.30
2023-12-17T03:11:21.806Z,313.00
2023-12-17T03:11:54.347Z,320.20
2023-12-17T03:12:26.871Z,347.20
2023-12-17T03:12:59.343Z,335.40
2023-12-17T03:13:31.858Z,363.10
2023-12-17T03:14:04.365Z,372.30
2023-12-17T03:14:36.830Z,399.10
2023-12-17T03:15:09.319Z,424.80
2023-12-17T03:15:41.778Z,428.90
2023-12-17T03:16:14.233Z,404.60
2023-12-17T03:16:46.734Z,399.90
2023-12-17T03:17:19.298Z,399.10
2023-12-17T03:17:51.849Z,356.80
2023-12-17T03:18:24.498Z,330.40
2023-12-17T03:18:57.134Z,315.90
2023-12-17T03:19:29.578Z,362.00
2023-12-17T03:20:01.993Z,345.40
2023-12-17T03:20:34.515Z,339.20
2023-12-17T03:21:06.994Z,319.00
2023-12-17T03:21:39.458Z,306.90
2023-12-17T03:22:12.116Z,315.10
2023-12-17T03:22:44.632Z,326.10
2023-12-17T03:23:17.151Z,339.60
2023-12-17T03:23:49.684Z,354.00
2023-12-17T03:24:22.248Z,356.30
2023-12-17T03:24:54.739Z,381.20
2023-12-17T03:25:27.308Z,342.30
2023-12-17T03:25:59.782Z,321.70
2023-12-17T03:26:32.332Z,317.10
2023-12-17T03:27:04.849Z,315.50
2023-12-17T03:27:37.357Z,331.20
2023-12-17T03:28:09.698Z,351.50
2023-12-17T03:28:42.240Z,369.80
2023-12-17T03:29:14.794Z,376.40
2023-12-17T03:29:47.344Z,348.20
2023-12-17T03:30:20.027Z,349.40
2023-12-17T03:30:52.345Z,354.10
2023-12-17T03:31:24.833Z,365.10
2023-12-17T03:31:57.321Z,367.80
2023-12-17T03:32:30.037Z,361.90
2023-12-17T03:33:02.515Z,390.20
2023-12-17T03:33:35.112Z,396.30
2023-12-17T03:34:07.534Z,388.40
2023-12-17T03:34:40.082Z,383.50
2023-12-17T03:35:12.500Z,400.90
2023-12-17T03:35:45.010Z,415.50
2023-12-17T03:36:17.607Z,465.00
2023-12-17T03:36:50.001Z,501.90
2023-12-17T03:37:22.573Z,475.00
2023-12-17T03:37:55.066Z,491.60
2023-12-17T03:38:27.530Z,491.60
2023-12-17T03:39:02.691Z,488.80
2023-12-17T03:39:35.126Z,507.80
2023-12-17T03:40:07.626Z,502.80
2023-12-17T03:40:40.188Z,493.40
2023-12-17T03:41:12.713Z,475.90
2023-12-17T03:41:45.297Z,477.80
2023-12-17T03:42:17.879Z,510.30
2023-12-17T03:42:50.325Z,493.80
2023-12-17T03:43:22.905Z,416.90
2023-12-17T03:43:55.480Z,392.50
2023-12-17T03:44:27.920Z,416.30
2023-12-17T03:45:00.432Z,458.70
2023-12-17T03:45:32.928Z,453.10
2023-12-17T03:46:05.478Z,456.50
2023-12-17T03:46:37.990Z,451.80
2023-12-17T03:47:10.489Z,467.40
2023-12-17T03:47:43.563Z,491.90
2023-12-17T03:48:15.667Z,491.60
2023-12-17T03:48:48.232Z,459.40
2023-12-17T03:49:20.685Z,461.60
2023-12-17T03:49:53.270Z,501.40
2023-12-17T03:50:25.797Z,535.20
2023-12-17T03:50:58.362Z,526.70
2023-12-17T03:51:30.949Z,516.40
2023-12-17T03:52:03.490Z,501.70
2023-12-17T03:52:36.056Z,495.80
2023-12-17T03:53:08.582Z,503.90
2023-12-17T03:53:41.046Z,498.40
2023-12-17T03:54:13.542Z,485.00
2023-12-17T03:54:46.074Z,461.90
2023-12-17T03:55:18.598Z,442.50
2023-12-17T03:55:51.158Z,444.50
2023-12-17T03:56:23.790Z,482.50
2023-12-17T03:56:56.231Z,440.80
2023-12-17T03:57:28.811Z,432.50
2023-12-17T03:58:01.324Z,444.10
2023-12-17T03:58:33.858Z,481.20
2023-12-17T03:59:06.429Z,481.50
2023-12-17T03:59:38.973Z,471.70
2023-12-17T04:00:11.538Z,476.90
2023-12-17T04:00:43.938Z,489.80
2023-12-17T04:01:16.475Z,479.50
2023-12-17T04:01:48.945Z,481.00
2023-12-17T04:02:21.380Z,497.50
2023-12-17T04:02:53.939Z,482.50
2023-12-17T04:03:26.392Z,435.90
2023-12-17T04:03:58.924Z,447.20
2023-12-17T04:04:31.415Z,462.70
2023-12-17T04:05:03.937Z,429.20
2023-12-17T04:05:36.401Z,416.20
2023-12-17T04:06:09.260Z,409.00
2023-12-17T04:06:41.527Z,407.60
2023-12-17T04:07:14.113Z,441.20
2023-12-17T04:07:46.648Z,472.80
2023-12-17T04:08:19.157Z,451.80
2023-12-17T04:08:54.032Z,418.30
2023-12-17T04:09:24.271Z,410.40
2023-12-17T04:09:56.751Z,503.10
2023-12-17T04:10:29.315Z,501.50
2023-12-17T04:11:01.829Z,471.30
2023-12-17T04:11:34.275Z,496.10
2023-12-17T04:12:06.907Z,507.80
2023-12-17T04:12:58.782Z,521.80
2023-12-17T04:13:31.375Z,560.50
2023-12-17T04:14:03.912Z,549.80
2023-12-17T04:14:36.380Z,509.60
2023-12-17T04:15:08.977Z,493.30
2023-12-17T04:15:41.452Z,494.90
2023-12-17T04:16:13.968Z,480.70
2023-12-17T04:16:46.567Z,495.70
2023-12-17T04:17:19.102Z,510.40
2023-12-17T04:17:51.801Z,524.70
2023-12-17T04:18:24.493Z,501.80
2023-12-17T04:18:56.904Z,478.50
2023-12-17T04:19:29.425Z,534.40
2023-12-17T04:20:01.985Z,508.80
2023-12-17T04:20:34.398Z,476.60
2023-12-17T04:21:07.048Z,502.30
2023-12-17T04:21:39.537Z,444.10
2023-12-17T04:22:12.088Z,453.70
2023-12-17T04:22:44.610Z,456.00
2023-12-17T04:23:17.086Z,444.20
2023-12-17T04:23:49.703Z,451.50
2023-12-17T04:24:22.253Z,462.90
2023-12-17T04:24:58.954Z,446.50
2023-12-17T04:25:31.475Z,449.90
2023-12-17T04:26:03.930Z,454.50
2023-12-17T04:26:36.430Z,433.40
2023-12-17T04:27:09.045Z,462.90
2023-12-17T04:27:41.762Z,476.30
2023-12-17T04:28:14.185Z,475.90
2023-12-17T04:28:46.752Z,502.00
2023-12-17T04:29:19.231Z,485.90
2023-12-17T04:29:51.746Z,486.50
2023-12-17T04:30:24.418Z,497.10
2023-12-17T04:30:56.776Z,499.70
2023-12-17T04:31:29.287Z,471.30
2023-12-17T04:32:01.814Z,461.40
2023-12-17T04:32:34.424Z,495.60
2023-12-17T04:33:26.339Z,504.20
2023-12-17T04:33:58.808Z,491.40
2023-12-17T04:34:31.260Z,485.30
2023-12-17T04:35:03.722Z,492.80
2023-12-17T04:35:36.196Z,522.20
2023-12-17T04:36:08.772Z,514.00
2023-12-17T04:36:41.244Z,494.50
2023-12-17T04:37:13.695Z,469.70
2023-12-17T04:37:46.148Z,510.00
2023-12-17T04:38:18.615Z,516.20
2023-12-17T04:38:51.152Z,477.40
2023-12-17T04:39:23.665Z,444.10
2023-12-17T04:39:56.088Z,450.10
2023-12-17T04:40:28.530Z,442.00
2023-12-17T04:41:01.019Z,431.20
2023-12-17T04:41:33.445Z,425.70
2023-12-17T04:42:05.996Z,435.30
2023-12-17T04:42:38.462Z,406.90
2023-12-17T04:43:10.953Z,407.90
2023-12-17T04:43:43.483Z,406.40
2023-12-17T04:44:16.020Z,405.20
2023-12-17T04:44:48.508Z,434.50
2023-12-17T04:45:21.031Z,442.70
2023-12-17T04:45:53.454Z,472.50
2023-12-17T04:46:25.893Z,474.70
2023-12-17T04:46:58.367Z,444.60
2023-12-17T04:47:30.922Z,455.50
2023-12-17T04:48:03.587Z,474.80
2023-12-17T04:48:36.274Z,479.10
2023-12-17T04:49:08.612Z,485.00
2023-12-17T04:49:40.920Z,486.60
2023-12-17T04:50:13.399Z,474.90
2023-12-17T04:50:45.867Z,472.60
2023-12-17T04:51:18.368Z,485.50
2023-12-17T04:51:50.826Z,516.80
2023-12-17T04:52:23.482Z,501.00
2023-12-17T04:52:55.979Z,485.60
2023-12-17T04:53:28.428Z,460.60
2023-12-17T04:54:00.950Z,422.80
2023-12-17T04:54:33.444Z,409.10
2023-12-17T04:55:05.926Z,451.20
2023-12-17T04:55:38.406Z,464.40
2023-12-17T04:56:10.869Z,466.80
2023-12-17T04:56:43.363Z,465.80
2023-12-17T04:57:15.894Z,464.70
2023-12-17T04:57:48.340Z,480.80
2023-12-17T04:58:20.770Z,488.70
2023-12-17T04:58:53.321Z,501.20
2023-12-17T04:59:25.825Z,506.70
2023-12-17T04:59:58.481Z,528.20
2023-12-17T05:00:30.931Z,538.80
2023-12-17T05:01:03.319Z,544.20
2023-12-17T05:01:35.806Z,531.60
2023-12-17T05:02:08.300Z,540.90
2023-12-17T05:02:40.840Z,560.60
2023-12-17T05:03:14.198Z,555.50
2023-12-17T05:03:46.770Z,511.00
2023-12-17T05:04:19.411Z,541.50
2023-12-17T05:04:51.664Z,573.00
2023-12-17T05:05:24.230Z,575.20
2023-12-17T05:05:56.702Z,544.00
2023-12-17T05:13:19.090Z,375.70
2023-12-17T05:13:51.644Z,416.40
2023-12-17T05:14:24.159Z,536.80
2023-12-17T05:14:56.843Z,582.10
2023-12-17T05:15:29.437Z,452.70
2023-12-17T05:16:01.806Z,469.50
2023-12-17T05:16:34.286Z,474.40
2023-12-17T05:17:06.794Z,478.90
2023-12-17T05:17:39.787Z,466.50
2023-12-17T05:18:12.149Z,488.80
2023-12-17T05:18:44.634Z,444.50
2023-12-17T05:19:17.192Z,436.80
2023-12-17T05:19:50.108Z,435.90
2023-12-17T05:20:22.515Z,438.70
2023-12-17T05:20:55.104Z,456.50
2023-12-17T05:21:27.773Z,434.60
2023-12-17T05:22:00.205Z,456.60
2023-12-17T05:22:32.660Z,471.50
2023-12-17T05:23:05.141Z,490.10
2023-12-17T05:23:37.665Z,484.70
2023-12-17T05:24:10.371Z,478.90
2023-12-17T05:24:42.788Z,468.00
2023-12-17T05:25:16.609Z,462.50
2023-12-17T05:25:47.821Z,502.40
2023-12-17T05:26:20.291Z,519.40
2023-12-17T05:26:52.845Z,548.90
2023-12-17T05:27:25.314Z,556.60
2023-12-17T05:27:57.776Z,560.70
2023-12-17T05:28:30.320Z,554.40
2023-12-17T05:29:02.848Z,533.60
2023-12-17T05:29:35.409Z,558.80
2023-12-17T05:30:08.030Z,577.70
2023-12-17T05:30:41.644Z,580.00
2023-12-17T05:31:12.953Z,602.70
2023-12-17T05:31:45.348Z,580.50
2023-12-17T05:32:17.816Z,506.10
2023-12-17T05:32:50.416Z,507.10
2023-12-17T05:33:22.932Z,518.90
2023-12-17T05:33:55.475Z,524.30
2023-12-17T05:34:28.002Z,511.80
2023-12-17T05:35:00.352Z,532.30
2023-12-17T05:35:32.880Z,564.40
2023-12-17T05:36:05.455Z,560.10
2023-12-17T05:36:37.826Z,534.40
2023-12-17T05:37:10.275Z,546.80
2023-12-17T05:37:42.992Z,548.00
2023-12-17T05:38:15.249Z,469.10
2023-12-17T05:38:47.788Z,440.20
2023-12-17T05:39:20.267Z,439.20
2023-12-17T05:39:52.736Z,439.80
2023-12-17T05:40:25.244Z,393.10
2023-12-17T05:40:57.764Z,412.80
2023-12-17T05:41:30.278Z,447.40
2023-12-17T05:42:02.807Z,466.90
2023-12-17T05:42:35.289Z,492.30
2023-12-17T05:43:07.772Z,494.70
2023-12-17T05:43:40.257Z,475.30
2023-12-17T05:44:12.756Z,505.20
2023-12-17T05:44:45.332Z,566.40
2023-12-17T05:45:17.840Z,570.60
2023-12-17T05:45:58.290Z,560.50
2023-12-17T05:46:22.826Z,536.90
2023-12-17T05:46:55.348Z,469.90
2023-12-17T05:47:27.833Z,454.50
2023-12-17T05:48:00.495Z,473.80
2023-12-17T05:48:32.882Z,480.20
2023-12-17T05:49:05.369Z,499.40
2023-12-17T05:49:37.766Z,507.90
2023-12-17T05:50:10.254Z,500.20
2023-12-17T05:50:42.576Z,523.30
2023-12-17T05:51:15.029Z,475.80
2023-12-17T05:51:49.592Z,498.30
2023-12-17T05:52:19.924Z,511.70
2023-12-17T05:52:52.364Z,483.20
2023-12-17T05:53:30.216Z,522.50
2023-12-17T05:53:57.235Z,515.10
2023-12-17T05:54:29.783Z,503.10
2023-12-17T05:55:02.106Z,511.00
2023-12-17T05:55:34.636Z,513.10
2023-12-17T05:56:07.120Z,532.90
2023-12-17T05:56:39.613Z,537.80
2023-12-17T05:57:12.094Z,545.60
2023-12-17T05:57:44.484Z,555.10
2023-12-17T05:58:16.973Z,558.80
2023-12-17T05:58:49.426Z,499.70
2023-12-17T05:59:21.846Z,524.60
2023-12-17T05:59:54.309Z,547.00
2023-12-17T06:00:26.735Z,534.40
2023-12-17T06:00:59.215Z,528.40
2023-12-17T06:01:31.651Z,543.60
2023-12-17T06:02:04.112Z,527.80
2023-12-17T06:02:36.581Z,553.20
2023-12-17T06:03:09.080Z,574.80
2023-12-17T06:03:41.692Z,564.30
2023-12-17T06:04:14.009Z,569.30
2023-12-17T06:04:46.477Z,592.90
2023-12-17T06:05:18.919Z,525.80
2023-12-17T06:05:51.509Z,540.20
2023-12-17T06:06:25.109Z,571.00
2023-12-17T06:06:56.340Z,535.20
2023-12-17T06:07:28.795Z,514.50
2023-12-17T06:08:01.294Z,537.50
2023-12-17T06:08:33.773Z,517.70
2023-12-17T06:09:06.302Z,517.10
2023-12-17T06:09:38.733Z,498.70
2023-12-17T06:10:11.221Z,508.60
2023-12-17T06:10:43.759Z,537.30
2023-12-17T06:11:16.211Z,543.30
2023-12-17T06:11:48.788Z,561.20
2023-12-17T06:12:21.246Z,554.80
2023-12-17T06:12:53.746Z,566.00
2023-12-17T06:13:26.256Z,551.80
2023-12-17T06:13:58.708Z,553.00
2023-12-17T06:14:31.150Z,559.20
2023-12-17T06:15:03.687Z,567.30
2023-12-17T06:15:36.180Z,559.10
2023-12-17T06:16:08.666Z,509.00
2023-12-17T06:16:41.194Z,503.10
2023-12-17T06:17:13.689Z,528.80
2023-12-17T06:17:46.218Z,538.60
2023-12-17T06:18:19.020Z,506.20
2023-12-17T06:18:51.217Z,528.60
2023-12-17T06:19:23.663Z,556.90
2023-12-17T06:20:15.457Z,521.40
2023-12-17T06:20:48.881Z,523.90
2023-12-17T06:21:21.329Z,550.70
2023-12-17T06:21:53.779Z,539.20
2023-12-17T06:22:26.236Z,535.50
2023-12-17T06:22:58.758Z,528.60
2023-12-17T06:23:31.216Z,493.50
2023-12-17T06:24:03.809Z,468.50
2023-12-17T06:24:36.198Z,476.20
2023-12-17T06:25:08.649Z,500.90
2023-12-17T06:25:41.111Z,505.90
2023-12-17T06:26:13.620Z,504.10
2023-12-17T06:26:46.192Z,495.80
2023-12-17T06:27:18.714Z,503.80
2023-12-17T06:27:51.130Z,492.20
2023-12-17T06:28:23.600Z,505.00
2023-12-17T06:28:56.098Z,519.10
2023-12-17T06:29:28.529Z,539.90
2023-12-17T06:30:01.002Z,546.90
2023-12-17T06:30:33.530Z,526.30
2023-12-17T06:31:05.971Z,519.00
2023-12-17T06:31:38.402Z,510.70
2023-12-17T06:32:10.873Z,508.30
2023-12-17T06:32:43.550Z,538.30
2023-12-17T06:33:16.143Z,541.00
2023-12-17T06:33:48.595Z,546.60
2023-12-17T06:34:20.876Z,532.00
2023-12-17T06:34:53.401Z,510.80
2023-12-17T06:35:25.818Z,504.90
2023-12-17T06:35:58.308Z,516.10
2023-12-17T06:36:30.832Z,532.90
2023-12-17T06:37:03.302Z,543.20
2023-12-17T06:37:35.860Z,544.70
2023-12-17T06:38:08.312Z,505.50
2023-12-17T06:38:40.783Z,517.50
2023-12-17T06:39:13.348Z,522.70
2023-12-17T06:39:45.830Z,506.30
2023-12-17T06:40:18.355Z,509.20
2023-12-17T06:40:50.811Z,475.60
2023-12-17T06:41:23.277Z,447.10
2023-12-17T06:41:55.699Z,351.80
2023-12-17T06:42:28.229Z,346.20
2023-12-17T06:43:00.634Z,343.80
2023-12-17T06:43:33.146Z,309.50
2023-12-17T06:44:05.640Z,311.10
2023-12-17T06:44:38.146Z,324.50
2023-12-17T06:45:10.642Z,344.50
2023-12-17T06:45:43.126Z,328.00
2023-12-17T06:46:15.550Z,329.40
2023-12-17T06:46:48.000Z,348.90
2023-12-17T06:47:26.350Z,352.70
2023-12-17T06:47:53.061Z,339.00
2023-12-17T06:48:25.527Z,315.70
2023-12-17T06:48:58.002Z,293.50
2023-12-17T06:49:30.531Z,311.40
2023-12-17T06:50:03.114Z,355.70
2023-12-17T06:50:35.331Z,350.00
2023-12-17T06:51:07.886Z,316.10
2023-12-17T06:51:40.318Z,368.50
2023-12-17T06:52:12.850Z,427.20
2023-12-17T06:52:45.359Z,479.50
2023-12-17T06:53:17.893Z,543.90
2023-12-17T06:53:52.090Z,538.80